This is the latest recevied weather packets stored in our database for station/object G4GVZ-1. If no packets are shown the sender has not sent any weather packets the latest 10 day(s).
| Time | Temp. | Humidity | Pressure | Rain* | Wind** | Luminosity | Snow |
|---|---|---|---|---|---|---|---|
| 1777914051 | 16.11° C | 72% | 1013.8 hPa | 0 mm | - | - | - |
| 1777913151 | 16.67° C | 67% | 1013.8 hPa | 0 mm | - | - | - |
| 1777912251 | 16.67° C | 67% | 1013.8 hPa | 0 mm | - | - | - |
| 1777911350 | 16.67° C | 67% | 1013.9 hPa | 0 mm | - | - | - |
| 1777910450 | 16.67° C | 68% | 1014.1 hPa | 0 mm | - | - | - |
| 1777909550 | 16.67° C | 69% | 1014.1 hPa | 0 mm | - | - | - |
| 1777908650 | 15.56° C | 72% | 1014.2 hPa | 0 mm | - | - | - |
| 1777907749 | 15.56° C | 72% | 1014.3 hPa | 0 mm | - | - | - |
| 1777906851 | 15.56° C | 72% | 1014.3 hPa | 0 mm | - | - | - |
| 1777905949 | 15.56° C | 73% | 1014.4 hPa | 0 mm | - | - | - |
| 1777905050 | 15° C | 74% | 1014.3 hPa | 0 mm | - | - | - |
| 1777904150 | 14.44° C | 77% | 1014.4 hPa | 0 mm | - | - | - |
| 1777903250 | 14.44° C | 77% | 1014.4 hPa | 0 mm | - | - | - |
| 1777902349 | 14.44° C | 79% | 1014.5 hPa | 0 mm | - | - | - |
| 1777901449 | 13.89° C | 80% | 1014.5 hPa | 0 mm | - | - | - |
| 1777900549 | 13.33° C | 81% | 1014.7 hPa | 0 mm | - | - | - |
| 1777899649 | 13.33° C | 82% | 1014.6 hPa | 0 mm | - | - | - |
| 1777898751 | 12.78° C | 83% | 1014.6 hPa | 0 mm | - | - | - |
| 1777897851 | 12.78° C | 85% | 1014.6 hPa | 0 mm | - | - | - |
| 1777896950 | 12.78° C | 85% | 1014.7 hPa | 0 mm | - | - | - |
| 1777896050 | 12.78° C | 86% | 1014.6 hPa | 0 mm | - | - | - |
| 1777895150 | 12.22° C | 87% | 1014.6 hPa | 0 mm | - | - | - |
| 1777894250 | 12.22° C | 87% | 1014.6 hPa | 0 mm | - | - | - |
| 1777893351 | 12.22° C | 87% | 1014.8 hPa | 0 mm | - | - | - |
| 1777892451 | 12.22° C | 86% | 1014.6 hPa | 0 mm | - | - | - |
* Rain latest hour (hover to see other rain measurements)
** Current wind speed in m/s (hover to see current wind gust speed)